Time;durP1;ratioP1;P1;durP2;ratioP2;P2;SDS_P1;SDS_P2;PMS_P1;PMS_P2;Temp;Humidity;BMP_temperature;BMP_pressure;BME280_temperature;BME280_humidity;BME280_pressure;Samples;Min_cycle;Max_cycle;Signal;HPM_P1;HPM_P2
2022/06/09 00:00:48;;;;;;;16.50;11.10;;;17.30;99.90;;;;;;5029720;28;20668;-54
2022/06/09 00:03:21;;;;;;;12.00;10.57;;;17.40;99.90;;;;;;5033123;28;20453;-54
2022/06/09 00:05:49;;;;;;;12.10;10.83;;;17.50;99.90;;;;;;5028227;28;20787;-53
2022/06/09 00:08:18;;;;;;;12.07;10.87;;;17.60;99.90;;;;;;5031526;28;20438;-55
2022/06/09 00:10:58;;;;;;;12.63;10.63;;;17.50;99.90;;;;;;5032370;28;20790;-53
2022/06/09 00:13:25;;;;;;;12.03;10.83;;;17.40;99.90;;;;;;5029368;28;20412;-53
2022/06/09 00:15:52;;;;;;;13.93;12.13;;;17.40;99.90;;;;;;5032594;28;20422;-51
2022/06/09 00:18:21;;;;;;;12.50;11.10;;;17.20;99.90;;;;;;5024168;28;20468;-53
2022/06/09 00:20:49;;;;;;;18.77;11.93;;;17.20;99.90;;;;;;5031049;28;20579;-55
2022/06/09 00:23:17;;;;;;;15.77;12.17;;;17.20;99.90;;;;;;5026205;28;20444;-54
2022/06/09 00:25:46;;;;;;;15.10;12.77;;;17.30;99.90;;;;;;5029148;28;20780;-53
2022/06/09 00:28:13;;;;;;;13.70;12.17;;;17.30;99.90;;;;;;5031793;28;20871;-54
2022/06/09 00:30:41;;;;;;;17.23;14.37;;;17.30;99.90;;;;;;5029155;28;20455;-56
2022/06/09 00:33:09;;;;;;;15.30;12.60;;;17.10;99.90;;;;;;5031380;28;20446;-56
2022/06/09 00:35:36;;;;;;;15.30;13.53;;;17.20;99.90;;;;;;5030129;28;20766;-57
2022/06/09 00:38:03;;;;;;;14.83;13.23;;;17.30;99.90;;;;;;5034043;28;20463;-58
2022/06/09 00:40:31;;;;;;;14.43;12.97;;;17.30;99.90;;;;;;5034693;28;20433;-52
2022/06/09 00:42:59;;;;;;;14.97;12.53;;;17.30;99.90;;;;;;5029778;28;20448;-57
2022/06/09 00:45:36;;;;;;;12.83;11.57;;;17.30;99.90;;;;;;5031423;28;20431;-57
2022/06/09 00:48:25;;;;;;;13.80;11.57;;;17.00;99.90;;;;;;5028057;28;20585;-58
2022/06/09 00:51:09;;;;;;;19.40;12.10;;;17.10;99.90;;;;;;5028051;28;20455;-55
2022/06/09 00:53:40;;;;;;;15.67;13.63;;;17.30;99.90;;;;;;5025363;28;20537;-55
2022/06/09 00:56:10;;;;;;;13.27;11.40;;;17.40;99.90;;;;;;5032605;28;20447;-53
2022/06/09 00:58:40;;;;;;;12.47;11.27;;;17.40;99.90;;;;;;5028665;28;20885;-54
2022/06/09 01:01:11;;;;;;;14.67;12.50;;;17.40;99.90;;;;;;5031877;28;20442;-54
2022/06/09 01:04:07;;;;;;;18.90;11.83;;;17.40;99.90;;;;;;5028677;28;20915;-56
2022/06/09 01:06:43;;;;;;;15.23;13.57;;;17.50;99.90;;;;;;5025187;28;20448;-53
2022/06/09 01:09:13;;;;;;;14.60;11.33;;;17.50;99.90;;;;;;5027059;28;20449;-57
2022/06/09 01:11:42;;;;;;;14.63;13.00;;;17.50;99.90;;;;;;5029684;28;20449;-54
2022/06/09 01:14:13;;;;;;;13.27;11.87;;;17.50;99.90;;;;;;5030348;28;20417;-56
2022/06/09 01:17:06;;;;;;;15.30;13.10;;;17.40;99.90;;;;;;5028032;28;20633;-52
2022/06/09 01:19:56;;;;;;;15.73;13.43;;;17.40;99.90;;;;;;5030672;28;20418;-53
2022/06/09 01:22:42;;;;;;;19.17;13.87;;;17.40;99.90;;;;;;5029949;28;20598;-52
2022/06/09 01:25:15;;;;;;;19.10;13.60;;;17.50;99.90;;;;;;5029570;28;20452;-54
2022/06/09 01:28:03;;;;;;;14.10;11.77;;;17.40;99.90;;;;;;5028118;28;20441;-56
2022/06/09 01:30:38;;;;;;;13.37;11.70;;;17.30;99.90;;;;;;5025397;28;20639;-54
2022/06/09 01:33:10;;;;;;;13.83;12.33;;;17.20;99.90;;;;;;5031159;28;20951;-57
2022/06/09 01:35:54;;;;;;;13.90;12.17;;;17.30;99.90;;;;;;5033737;28;20456;-56
2022/06/09 01:38:22;;;;;;;14.63;12.93;;;17.30;99.90;;;;;;5038252;28;20549;-54
2022/06/09 01:40:49;;;;;;;20.90;13.73;;;17.40;99.90;;;;;;5032641;28;20443;-58
2022/06/09 01:43:17;;;;;;;14.80;12.47;;;17.40;99.90;;;;;;5034824;28;20428;-53
2022/06/09 01:45:59;;;;;;;15.60;12.93;;;17.40;99.90;;;;;;5031221;28;20425;-54
2022/06/09 01:48:29;;;;;;;14.80;13.10;;;17.30;99.90;;;;;;5033705;28;20577;-55
2022/06/09 01:51:15;;;;;;;16.40;14.70;;;17.30;99.90;;;;;;5031696;28;20417;-50
2022/06/09 01:53:54;;;;;;;17.20;14.17;;;17.30;99.90;;;;;;5036285;28;20435;-54
2022/06/09 01:56:45;;;;;;;19.23;14.17;;;17.30;99.90;;;;;;5033224;28;20416;-55
2022/06/09 01:59:42;;;;;;;17.70;13.33;;;17.20;99.90;;;;;;5032914;28;20481;-54
2022/06/09 02:02:20;;;;;;;15.70;12.73;;;17.20;99.90;;;;;;5041964;28;20425;-57
2022/06/09 02:05:03;;;;;;;14.57;12.23;;;17.30;99.90;;;;;;5043151;28;20440;-54
2022/06/09 02:07:33;;;;;;;17.77;13.27;;;17.00;99.90;;;;;;5034694;28;20643;-51
2022/06/09 02:10:20;;;;;;;17.93;14.63;;;17.10;99.90;;;;;;5033019;28;20664;-51
2022/06/09 02:12:49;;;;;;;16.00;14.40;;;17.20;99.90;;;;;;5032513;28;20809;-52
2022/06/09 02:15:23;;;;;;;19.90;16.13;;;17.30;99.90;;;;;;5037933;28;20643;-50
2022/06/09 02:17:51;;;;;;;20.80;14.80;;;17.30;99.90;;;;;;5036489;28;20475;-54
2022/06/09 02:20:22;;;;;;;14.30;12.60;;;17.30;99.90;;;;;;5036480;28;20441;-55
2022/06/09 02:22:50;;;;;;;16.33;13.43;;;17.30;99.90;;;;;;5033742;28;20449;-55
2022/06/09 02:25:18;;;;;;;17.43;14.60;;;17.30;99.90;;;;;;5035551;28;20444;-54
2022/06/09 02:27:45;;;;;;;17.33;15.30;;;17.10;99.90;;;;;;5033135;28;20662;-55
2022/06/09 02:30:13;;;;;;;16.90;14.37;;;17.30;99.90;;;;;;5034779;28;20799;-53
2022/06/09 02:33:00;;;;;;;16.77;14.67;;;17.40;99.90;;;;;;5037689;28;20411;-51
2022/06/09 02:35:28;;;;;;;18.53;14.40;;;17.60;99.90;;;;;;5031922;28;20414;-53
2022/06/09 02:37:56;;;;;;;19.17;16.23;;;17.70;99.90;;;;;;5036910;28;20461;-51
2022/06/09 02:40:23;;;;;;;18.97;14.73;;;17.50;99.90;;;;;;5029872;28;20442;-53
2022/06/09 02:42:51;;;;;;;19.80;17.10;;;17.40;99.90;;;;;;5037222;28;20452;-51
2022/06/09 02:45:18;;;;;;;20.47;18.00;;;17.10;99.90;;;;;;5036655;28;20474;-55
2022/06/09 02:47:45;;;;;;;20.07;17.97;;;17.10;99.90;;;;;;5036487;28;20438;-52
2022/06/09 02:50:13;;;;;;;18.20;15.63;;;17.00;99.90;;;;;;5037249;28;20414;-52
2022/06/09 02:52:44;;;;;;;21.00;16.73;;;17.00;99.90;;;;;;5033379;28;20445;-52
2022/06/09 02:55:13;;;;;;;19.90;15.87;;;16.90;99.90;;;;;;5036632;28;20792;-52
2022/06/09 02:57:40;;;;;;;17.53;15.63;;;16.80;99.90;;;;;;5030709;28;20683;-56
2022/06/09 03:00:12;;;;;;;23.00;16.93;;;17.00;99.90;;;;;;5035590;28;20794;-51
2022/06/09 03:02:39;;;;;;;19.90;16.17;;;17.00;99.90;;;;;;5034344;28;20423;-56
2022/06/09 03:05:10;;;;;;;20.47;16.73;;;17.00;99.90;;;;;;5036275;28;20415;-52
2022/06/09 03:07:38;;;;;;;19.13;17.10;;;17.10;99.90;;;;;;5032803;28;20455;-54
2022/06/09 03:10:05;;;;;;;17.83;15.77;;;17.00;99.90;;;;;;5034289;28;20414;-52
2022/06/09 03:12:32;;;;;;;21.33;17.00;;;17.10;99.90;;;;;;5036972;28;20419;-52
2022/06/09 03:15:00;;;;;;;20.00;16.70;;;17.20;99.90;;;;;;5035346;28;20425;-52
2022/06/09 03:17:27;;;;;;;16.77;14.83;;;17.30;99.90;;;;;;5037295;28;21123;-51
2022/06/09 03:19:54;;;;;;;17.03;14.57;;;17.30;99.90;;;;;;5034657;28;20624;-55
2022/06/09 03:22:22;;;;;;;21.33;18.00;;;17.30;99.90;;;;;;5036896;28;20416;-57
2022/06/09 03:24:49;;;;;;;17.60;15.77;;;17.40;99.90;;;;;;5033817;28;20478;-53
2022/06/09 03:27:17;;;;;;;19.10;17.10;;;17.40;99.90;;;;;;5034686;28;20459;-55
2022/06/09 03:29:44;;;;;;;23.07;16.57;;;17.30;99.90;;;;;;5037451;28;20502;-55
2022/06/09 03:32:11;;;;;;;18.27;16.33;;;17.40;99.90;;;;;;5033656;28;20442;-55
2022/06/09 03:34:38;;;;;;;19.10;16.20;;;17.40;99.90;;;;;;5035735;28;20482;-54
2022/06/09 03:37:06;;;;;;;16.67;14.93;;;17.30;99.90;;;;;;5032149;28;20411;-54
2022/06/09 03:39:33;;;;;;;14.80;12.87;;;17.40;99.90;;;;;;5034377;28;20879;-50
2022/06/09 03:42:01;;;;;;;17.03;14.47;;;17.40;99.90;;;;;;5031676;28;20425;-53
2022/06/09 03:44:28;;;;;;;17.70;15.90;;;17.50;99.90;;;;;;5028119;28;20758;-52
2022/06/09 03:46:56;;;;;;;18.07;15.03;;;17.40;99.90;;;;;;5037009;28;20433;-52
2022/06/09 03:49:23;;;;;;;19.20;15.43;;;17.30;99.90;;;;;;5033793;28;20459;-53
2022/06/09 03:51:50;;;;;;;17.43;14.43;;;17.40;99.90;;;;;;5035657;28;20411;-56
2022/06/09 03:54:17;;;;;;;18.93;16.87;;;17.40;99.90;;;;;;5031661;28;20439;-52
2022/06/09 03:56:45;;;;;;;16.07;14.30;;;17.50;99.90;;;;;;5034782;28;20411;-53
2022/06/09 03:59:12;;;;;;;18.80;15.23;;;17.50;99.90;;;;;;5030952;28;20783;-50
2022/06/09 04:01:40;;;;;;;18.33;14.70;;;17.60;99.90;;;;;;5034401;28;20445;-53
2022/06/09 04:04:07;;;;;;;15.50;14.00;;;17.70;99.90;;;;;;5035083;28;20804;-52
2022/06/09 04:06:35;;;;;;;15.23;13.63;;;17.80;99.90;;;;;;5037275;28;20430;-53
2022/06/09 04:09:03;;;;;;;19.10;13.57;;;17.70;99.90;;;;;;5032626;28;20470;-53
2022/06/09 04:11:32;;;;;;;15.70;12.63;;;17.70;99.90;;;;;;5033140;28;20440;-54
2022/06/09 04:14:00;;;;;;;17.33;14.23;;;17.70;99.90;;;;;;5035661;28;20455;-53
2022/06/09 04:16:31;;;;;;;16.67;14.47;;;17.80;99.90;;;;;;5030770;28;20456;-51
2022/06/09 04:19:00;;;;;;;17.67;14.50;;;17.70;99.90;;;;;;5035708;28;20496;-53
2022/06/09 04:21:29;;;;;;;14.90;13.27;;;17.70;99.90;;;;;;5029290;28;20424;-55
2022/06/09 04:23:57;;;;;;;14.93;13.43;;;17.70;99.90;;;;;;5035867;28;20673;-50
2022/06/09 04:26:28;;;;;;;15.17;13.67;;;17.80;99.90;;;;;;5035731;28;20429;-55
2022/06/09 04:28:55;;;;;;;16.20;13.97;;;17.80;99.90;;;;;;5035914;28;20447;-52
2022/06/09 04:31:23;;;;;;;17.43;15.57;;;17.70;99.90;;;;;;5035299;28;20419;-53
2022/06/09 04:33:50;;;;;;;20.70;14.67;;;17.70;99.90;;;;;;5035543;28;20489;-53
2022/06/09 04:36:19;;;;;;;15.13;13.10;;;17.80;99.90;;;;;;5051274;28;20436;-57
2022/06/09 04:38:47;;;;;;;19.43;14.20;;;17.90;99.90;;;;;;5036029;28;20508;-55
2022/06/09 04:41:16;;;;;;;15.10;13.60;;;18.10;99.90;;;;;;5026305;28;20426;-53
2022/06/09 04:43:45;;;;;;;16.27;13.97;;;18.30;99.90;;;;;;5032519;28;20465;-54
2022/06/09 04:46:21;;;;;;;17.43;15.60;;;18.40;99.90;;;;;;5034622;28;20638;-56
2022/06/09 04:48:49;;;;;;;17.00;15.20;;;18.40;99.90;;;;;;5032413;28;20470;-53
2022/06/09 04:51:19;;;;;;;16.40;13.23;;;18.40;99.90;;;;;;5035233;28;20427;-55
2022/06/09 04:53:47;;;;;;;19.80;14.50;;;18.50;99.90;;;;;;5033608;28;20490;-54
2022/06/09 04:56:17;;;;;;;18.40;15.47;;;18.60;99.90;;;;;;5035118;28;20408;-57
2022/06/09 04:58:44;;;;;;;16.53;14.03;;;18.80;99.90;;;;;;5032066;28;20488;-53
2022/06/09 05:01:25;;;;;;;20.67;15.40;;;19.00;99.90;;;;;;5033505;28;20486;-56
2022/06/09 05:03:53;;;;;;;17.87;14.93;;;19.20;99.90;;;;;;5022022;28;20416;-55
2022/06/09 05:06:21;;;;;;;20.00;15.07;;;19.40;99.90;;;;;;5029711;28;20490;-55
2022/06/09 05:08:52;;;;;;;17.43;14.60;;;19.10;99.90;;;;;;5037971;28;20440;-54
2022/06/09 05:11:19;;;;;;;16.20;14.50;;;19.00;99.90;;;;;;5035595;28;20483;-53
2022/06/09 05:13:47;;;;;;;20.37;14.60;;;19.00;99.90;;;;;;5039542;28;20424;-56
2022/06/09 05:16:15;;;;;;;15.30;13.73;;;19.00;99.90;;;;;;5032825;28;20504;-54
2022/06/09 05:18:43;;;;;;;16.47;14.77;;;19.10;99.90;;;;;;5039214;28;20526;-55
2022/06/09 05:21:10;;;;;;;16.90;15.10;;;18.80;99.90;;;;;;5033399;28;20652;-54
2022/06/09 05:23:38;;;;;;;17.80;15.90;;;18.70;99.90;;;;;;5038698;28;20688;-53
2022/06/09 05:26:06;;;;;;;18.20;14.77;;;18.60;99.90;;;;;;5032998;28;20482;-56
2022/06/09 05:28:34;;;;;;;18.37;16.47;;;18.60;99.90;;;;;;5035894;28;20831;-52
2022/06/09 05:31:02;;;;;;;24.77;17.67;;;18.50;99.90;;;;;;5039848;28;20430;-56
2022/06/09 05:33:32;;;;;;;19.23;17.13;;;18.60;99.90;;;;;;5035097;28;20532;-53
2022/06/09 05:36:00;;;;;;;21.43;16.43;;;18.90;99.90;;;;;;5039693;28;20425;-52
2022/06/09 05:46:48;;;;;;;18.37;16.07;;;19.80;99.90;;;;;;5035094;28;20459;-53
2022/06/09 05:49:17;;;;;;;16.33;14.63;;;19.90;99.90;;;;;;5035455;28;20701;-56
2022/06/09 05:51:45;;;;;;;16.50;14.63;;;20.00;99.90;;;;;;5038265;28;20691;-51
2022/06/09 05:54:13;;;;;;;22.53;17.77;;;20.20;99.90;;;;;;5034629;28;20439;-54
2022/06/09 05:56:40;;;;;;;18.13;16.23;;;20.40;99.90;;;;;;5038380;28;20483;-57
2022/06/09 05:59:07;;;;;;;18.93;16.73;;;20.40;99.90;;;;;;5035069;28;20530;-54
2022/06/09 06:01:34;;;;;;;19.50;16.80;;;20.60;99.90;;;;;;5044092;28;20412;-56
2022/06/09 06:04:04;;;;;;;20.70;15.17;;;20.80;99.90;;;;;;5044897;28;20427;-50
2022/06/09 06:06:34;;;;;;;18.47;16.30;;;21.00;99.90;;;;;;5033276;28;20450;-56
2022/06/09 06:09:14;;;;;;;19.23;15.77;;;21.10;99.90;;;;;;5039122;28;20509;-53
2022/06/09 06:11:44;;;;;;;17.70;15.80;;;21.20;99.90;;;;;;5035970;28;20441;-52
2022/06/09 06:14:12;;;;;;;15.57;13.97;;;21.40;99.90;;;;;;5036923;28;20789;-55
2022/06/09 06:16:42;;;;;;;14.63;13.07;;;21.30;99.90;;;;;;5026554;28;20569;-54
2022/06/09 06:19:13;;;;;;;18.10;16.30;;;21.10;99.90;;;;;;5029951;28;20497;-53
2022/06/09 06:21:42;;;;;;;21.33;14.87;;;21.30;99.90;;;;;;5033082;28;20413;-55
2022/06/09 06:24:10;;;;;;;17.13;15.47;;;21.50;99.90;;;;;;5028110;28;20449;-53
2022/06/09 06:26:38;;;;;;;20.77;16.37;;;21.20;99.90;;;;;;5032285;28;20422;-55
2022/06/09 06:29:08;;;;;;;17.30;15.33;;;21.00;99.90;;;;;;5030212;28;20449;-57
2022/06/09 06:31:35;;;;;;;17.80;15.27;;;21.10;99.90;;;;;;5026657;28;20427;-54
2022/06/09 06:34:03;;;;;;;17.40;15.70;;;21.40;99.90;;;;;;5031228;28;20453;-53
2022/06/09 06:36:30;;;;;;;17.17;15.20;;;22.10;99.90;;;;;;5031475;28;20503;-55
2022/06/09 06:38:58;;;;;;;15.57;13.50;;;22.10;99.90;;;;;;5033709;28;20487;-55
2022/06/09 06:41:25;;;;;;;15.77;14.27;;;21.80;99.90;;;;;;5031434;28;20444;-58
2022/06/09 06:43:52;;;;;;;14.43;12.93;;;22.00;99.90;;;;;;5032435;28;20441;-56
2022/06/09 06:46:20;;;;;;;18.30;14.73;;;22.80;99.90;;;;;;5042107;28;20425;-54
2022/06/09 06:48:49;;;;;;;13.83;12.43;;;23.80;99.90;;;;;;5037345;28;20858;-54
2022/06/09 06:51:16;;;;;;;13.73;12.53;;;24.60;99.90;;;;;;5036930;28;20456;-54
2022/06/09 06:53:44;;;;;;;13.33;12.07;;;25.20;99.90;;;;;;5032312;28;20476;-54
2022/06/09 06:56:11;;;;;;;13.97;12.30;;;25.60;99.90;;;;;;5037418;28;20797;-55
2022/06/09 06:58:39;;;;;;;14.10;12.27;;;25.30;99.90;;;;;;5037775;28;20682;-56
2022/06/09 07:01:06;;;;;;;12.60;11.33;;;24.90;99.90;;;;;;5036839;28;20452;-56
2022/06/09 07:03:33;;;;;;;15.83;13.17;;;25.60;99.90;;;;;;5037452;28;20716;-55
2022/06/09 07:06:05;;;;;;;13.30;11.90;;;26.10;99.90;;;;;;5037055;28;20446;-57
2022/06/09 07:08:33;;;;;;;18.53;10.90;;;25.80;99.90;;;;;;5036461;28;20465;-56
2022/06/09 07:11:00;;;;;;;12.70;10.57;;;26.10;99.90;;;;;;5033816;28;20649;-53
2022/06/09 07:13:27;;;;;;;11.20;10.20;;;26.60;99.90;;;;;;5035915;28;20415;-52
2022/06/09 07:15:55;;;;;;;10.53;9.53;;;27.00;99.90;;;;;;5033149;28;20777;-54
2022/06/09 07:18:28;;;;;;;12.17;10.77;;;27.70;99.90;;;;;;5034790;28;20830;-55
2022/06/09 07:20:57;;;;;;;11.83;10.73;;;26.90;99.90;;;;;;5032024;28;20439;-53
2022/06/09 07:23:26;;;;;;;12.57;11.27;;;27.00;99.90;;;;;;5033612;28;20452;-53
2022/06/09 07:25:54;;;;;;;12.90;11.50;;;26.50;99.90;;;;;;5030930;28;20452;-54
2022/06/09 07:28:22;;;;;;;13.63;10.50;;;27.60;99.90;;;;;;5031361;28;20733;-57
2022/06/09 07:30:56;;;;;;;12.60;11.40;;;29.50;99.90;;;;;;5036192;28;20622;-55
2022/06/09 07:33:25;;;;;;;12.10;11.00;;;30.50;99.90;;;;;;5030710;28;20489;-56
2022/06/09 07:35:54;;;;;;;12.27;11.03;;;30.30;99.90;;;;;;5035070;28;20468;-57
2022/06/09 07:38:22;;;;;;;15.43;13.63;;;29.30;99.90;;;;;;5029235;28;21074;-58
2022/06/09 07:40:50;;;;;;;12.50;11.20;;;28.60;99.90;;;;;;5035663;28;20692;-55
2022/06/09 07:43:37;;;;;;;10.97;9.87;;;28.20;99.90;;;;;;5028459;28;20435;-51
2022/06/09 07:46:05;;;;;;;9.77;8.77;;;27.90;99.90;;;;;;5035061;28;20830;-52
2022/06/09 07:48:32;;;;;;;16.17;10.97;;;27.60;99.90;;;;;;5033256;28;20796;-54
2022/06/09 07:51:15;;;;;;;10.37;9.37;;;27.40;99.90;;;;;;5034383;28;20988;-58
2022/06/09 07:53:42;;;;;;;11.20;9.10;;;28.30;99.90;;;;;;5031472;28;20778;-58
2022/06/09 07:56:10;;;;;;;9.00;8.10;;;29.90;99.90;;;;;;5033423;28;20449;-55
2022/06/09 07:58:37;;;;;;;10.30;8.97;;;30.60;99.90;;;;;;5031667;28;20534;-56
2022/06/09 08:01:05;;;;;;;9.27;8.47;;;31.40;99.90;;;;;;5034699;28;20498;-55
2022/06/09 08:03:33;;;;;;;11.17;9.50;;;31.70;99.90;;;;;;5035424;28;20532;-53
2022/06/09 08:06:00;;;;;;;8.57;7.70;;;33.10;99.90;;;;;;5036193;28;20485;-52
2022/06/09 08:08:48;;;;;;;10.30;8.43;;;35.00;94.90;;;;;;5031971;28;20499;-54
2022/06/09 08:11:16;;;;;;;9.10;8.30;;;37.50;84.40;;;;;;5031817;28;20444;-57
2022/06/09 08:13:43;;;;;;;8.77;7.97;;;39.30;74.50;;;;;;5035386;28;20440;-56
2022/06/09 08:16:12;;;;;;;17.33;7.63;;;38.80;71.10;;;;;;5030941;28;20777;-54
2022/06/09 08:18:39;;;;;;;9.00;8.20;;;37.80;71.40;;;;;;5028549;28;20512;-54
2022/06/09 08:21:07;;;;;;;7.73;7.07;;;36.60;77.40;;;;;;5030096;28;20481;-57
2022/06/09 08:23:52;;;;;;;8.90;8.17;;;37.00;76.80;;;;;;5029961;28;20441;-53
2022/06/09 08:26:19;;;;;;;8.07;7.47;;;37.60;73.80;;;;;;5028092;28;20465;-53
2022/06/09 08:28:47;;;;;;;9.70;7.80;;;35.70;76.50;;;;;;5034286;28;20477;-54
2022/06/09 08:31:14;;;;;;;9.20;7.43;;;34.80;80.60;;;;;;5034152;28;20446;-52
2022/06/09 08:33:42;;;;;;;8.20;7.37;;;33.60;82.20;;;;;;5036508;28;20784;-60
2022/06/09 08:36:12;;;;;;;8.60;7.43;;;32.20;89.40;;;;;;5042480;28;20476;-56
2022/06/09 08:38:41;;;;;;;8.97;8.13;;;31.30;92.80;;;;;;5035578;28;20448;-54
2022/06/09 08:41:27;;;;;;;7.93;7.13;;;30.20;96.90;;;;;;5039184;28;20481;-55
2022/06/09 08:44:14;;;;;;;9.03;8.23;;;29.50;99.90;;;;;;5032096;28;20438;-52
2022/06/09 08:46:53;;;;;;;7.80;7.10;;;29.00;99.90;;;;;;5026428;28;20820;-55
2022/06/09 08:49:48;;;;;;;6.20;5.70;;;28.50;99.90;;;;;;5030112;28;20516;-56
2022/06/09 08:52:25;;;;;;;7.13;6.57;;;28.00;99.90;;;;;;5029481;28;20513;-55
2022/06/09 08:54:56;;;;;;;6.13;5.63;;;27.90;99.90;;;;;;5028751;28;20665;-54
2022/06/09 08:57:31;;;;;;;8.50;6.10;;;27.80;99.90;;;;;;5029817;28;20465;-56
2022/06/09 09:00:00;;;;;;;7.10;6.50;;;27.80;99.90;;;;;;5028612;28;20530;-52
2022/06/09 09:02:37;;;;;;;6.33;5.67;;;28.10;99.90;;;;;;5029090;28;20433;-52
2022/06/09 09:05:11;;;;;;;7.23;6.53;;;28.30;99.90;;;;;;5029506;28;20434;-53
2022/06/09 09:07:44;;;;;;;5.87;5.37;;;28.80;99.90;;;;;;5030454;28;20465;-49
2022/06/09 09:10:18;;;;;;;8.30;7.60;;;28.90;99.90;;;;;;5030734;28;20514;-49
2022/06/09 09:13:22;;;;;;;7.93;7.20;;;29.20;99.90;;;;;;5027413;28;20449;-59
2022/06/09 09:15:57;;;;;;;7.90;7.20;;;29.20;99.90;;;;;;5013568;28;20836;-56
2022/06/09 09:18:54;;;;;;;9.70;7.93;;;28.60;99.90;;;;;;5031640;28;20753;-57
2022/06/09 09:21:57;;;;;;;9.00;8.20;;;28.40;99.90;;;;;;5030350;28;20542;-57
2022/06/09 09:24:44;;;;;;;8.80;7.90;;;28.30;99.90;;;;;;5027979;28;20501;-54
2022/06/09 09:27:49;;;;;;;7.93;7.13;;;28.60;99.90;;;;;;5034967;28;20460;-54
2022/06/09 09:30:20;;;;;;;10.57;7.97;;;28.30;99.90;;;;;;5032634;28;20491;-52
2022/06/09 09:32:54;;;;;;;9.10;8.27;;;27.70;99.90;;;;;;5034663;28;20625;-56
2022/06/09 09:35:32;;;;;;;8.30;7.50;;;27.30;99.90;;;;;;5034192;28;20447;-57
2022/06/09 09:38:01;;;;;;;8.97;7.97;;;27.00;99.90;;;;;;5033910;28;20464;-58
2022/06/09 09:40:37;;;;;;;8.20;7.40;;;27.10;99.90;;;;;;5034164;28;21010;-54
2022/06/09 09:43:16;;;;;;;13.77;7.97;;;27.30;99.90;;;;;;5033716;28;20465;-56
2022/06/09 09:45:50;;;;;;;7.70;7.00;;;27.30;99.90;;;;;;5035139;28;20795;-54
2022/06/09 09:48:17;;;;;;;9.37;8.47;;;26.70;99.90;;;;;;5034313;28;20428;-56
2022/06/09 09:51:01;;;;;;;8.23;7.27;;;26.20;99.90;;;;;;5035091;28;20447;-54
2022/06/09 09:53:31;;;;;;;6.93;6.30;;;26.00;99.90;;;;;;5037509;28;20487;-55
2022/06/09 09:56:17;;;;;;;11.67;7.13;;;26.00;99.90;;;;;;5038069;28;20768;-54
2022/06/09 09:58:47;;;;;;;8.10;7.30;;;26.10;99.90;;;;;;5035068;28;20457;-54
2022/06/09 10:10:40;;;;;;;8.47;7.63;;;26.20;99.90;;;;;;5031803;28;20406;-54
2022/06/09 10:13:33;;;;;;;8.80;7.90;;;26.00;99.90;;;;;;5037525;28;20422;-55
2022/06/09 10:16:03;;;;;;;9.50;7.67;;;26.30;99.90;;;;;;5034376;28;20427;-54
2022/06/09 10:18:53;;;;;;;11.07;9.90;;;27.10;99.90;;;;;;5032140;28;20496;-56
2022/06/09 10:22:00;;;;;;;10.80;9.70;;;27.40;99.90;;;;;;5032507;28;20452;-54
2022/06/09 10:24:59;;;;;;;11.90;10.70;;;27.60;99.90;;;;;;5026952;28;20640;-55
2022/06/09 10:27:33;;;;;;;11.70;10.50;;;27.30;99.90;;;;;;5035068;28;20458;-52
2022/06/09 10:30:35;;;;;;;12.00;10.10;;;27.30;99.90;;;;;;5036665;28;20846;-56
2022/06/09 10:33:32;;;;;;;12.63;10.73;;;27.30;99.90;;;;;;5036067;28;20520;-57
2022/06/09 10:36:06;;;;;;;9.87;8.70;;;27.20;99.90;;;;;;5030068;28;20454;-56
2022/06/09 10:38:50;;;;;;;11.00;9.33;;;27.10;99.90;;;;;;5031684;28;20458;-57
2022/06/09 10:41:43;;;;;;;8.77;8.00;;;27.20;99.90;;;;;;5035042;28;20830;-54
2022/06/09 10:44:26;;;;;;;13.00;9.80;;;27.30;99.90;;;;;;5032208;28;20441;-57
2022/06/09 10:56:41;;;;;;;9.30;8.30;;;27.20;99.90;;;;;;5020221;28;20549;-54
2022/06/09 10:59:15;;;;;;;8.83;8.03;;;26.90;99.90;;;;;;5031376;28;20468;-55
2022/06/09 11:01:44;;;;;;;11.20;8.03;;;26.80;99.90;;;;;;5034369;28;20451;-51
2022/06/09 11:04:17;;;;;;;7.83;7.13;;;26.80;99.90;;;;;;5035250;28;20412;-54
2022/06/09 11:07:17;;;;;;;8.33;7.63;;;27.00;99.90;;;;;;5033648;28;20446;-55
2022/06/09 11:09:53;;;;;;;8.67;7.30;;;26.90;99.90;;;;;;5030679;28;20677;-54
2022/06/09 11:12:43;;;;;;;9.37;7.10;;;27.00;99.90;;;;;;5036568;28;20421;-59
2022/06/09 11:15:30;;;;;;;6.97;6.37;;;27.40;99.90;;;;;;5033530;28;20447;-56
2022/06/09 11:18:07;;;;;;;9.83;7.30;;;27.30;99.90;;;;;;5036354;28;20491;-54
2022/06/09 11:20:58;;;;;;;8.90;8.10;;;27.20;99.90;;;;;;5030162;28;20907;-58
2022/06/09 11:23:52;;;;;;;6.60;6.00;;;27.00;99.90;;;;;;5035120;28;20502;-53
2022/06/09 11:26:22;;;;;;;8.13;7.40;;;27.00;99.90;;;;;;5028403;28;20509;-56
2022/06/09 11:28:56;;;;;;;7.40;6.60;;;26.90;99.90;;;;;;5035811;28;20894;-53
2022/06/09 11:32:11;;;;;;;6.07;5.57;;;27.00;99.90;;;;;;5033584;28;20475;-53
2022/06/09 11:34:54;;;;;;;6.67;6.07;;;27.40;99.90;;;;;;5022635;28;20781;-53
2022/06/09 11:37:39;;;;;;;6.23;5.70;;;27.90;99.90;;;;;;5031091;28;20535;-55
2022/06/09 11:40:24;;;;;;;8.30;5.20;;;28.30;99.90;;;;;;5036431;28;20479;-55
2022/06/09 11:43:08;;;;;;;8.90;7.03;;;28.30;99.90;;;;;;5031693;28;20438;-55
2022/06/09 11:45:52;;;;;;;6.77;6.17;;;28.50;99.90;;;;;;5035028;28;20629;-56
2022/06/09 11:48:28;;;;;;;6.83;6.13;;;28.50;99.90;;;;;;5033791;28;20464;-59
2022/06/09 11:50:58;;;;;;;6.53;5.93;;;28.80;99.90;;;;;;5030663;28;20437;-58
2022/06/09 11:53:30;;;;;;;5.67;4.83;;;29.10;99.90;;;;;;5032515;28;20781;-57
2022/06/09 11:56:33;;;;;;;5.80;5.30;;;29.00;99.90;;;;;;5033565;28;20476;-58
2022/06/09 11:59:06;;;;;;;5.17;4.67;;;29.10;99.90;;;;;;5026564;28;20470;-54
2022/06/09 12:01:40;;;;;;;5.27;4.80;;;29.00;99.90;;;;;;5028575;28;20557;-55
2022/06/09 12:04:35;;;;;;;6.70;6.10;;;28.30;99.90;;;;;;5035083;28;20452;-58
2022/06/09 12:07:47;;;;;;;4.83;4.33;;;28.10;99.90;;;;;;5032003;28;20443;-56
2022/06/09 12:10:31;;;;;;;8.10;5.90;;;27.80;99.90;;;;;;5031169;28;20445;-56
2022/06/09 12:13:19;;;;;;;5.30;4.90;;;27.70;99.90;;;;;;5034959;28;20636;-54
2022/06/09 12:16:02;;;;;;;5.83;5.23;;;27.60;99.90;;;;;;5029505;28;20449;-54
2022/06/09 12:18:39;;;;;;;6.43;5.90;;;27.80;99.90;;;;;;5034380;28;20520;-56
2022/06/09 12:21:14;;;;;;;5.90;5.30;;;27.90;99.90;;;;;;5030250;28;20645;-54
2022/06/09 12:24:14;;;;;;;8.23;4.90;;;28.00;99.90;;;;;;5035301;28;20441;-56
2022/06/09 12:26:42;;;;;;;4.90;4.53;;;28.30;99.90;;;;;;5028774;28;20686;-53
2022/06/09 12:29:34;;;;;;;6.77;6.03;;;28.20;99.90;;;;;;5036170;28;20531;-57
2022/06/09 12:32:07;;;;;;;6.60;5.20;;;28.00;99.90;;;;;;5031990;28;20523;-56
2022/06/09 12:34:46;;;;;;;5.03;4.60;;;27.80;99.90;;;;;;5028229;28;20515;-58
2022/06/09 12:37:22;;;;;;;6.00;5.00;;;27.90;99.90;;;;;;5030896;28;20830;-55
2022/06/09 12:40:12;;;;;;;4.83;4.43;;;27.90;99.90;;;;;;5033908;28;20516;-56
2022/06/09 12:42:49;;;;;;;6.40;5.90;;;28.00;99.90;;;;;;5028188;28;20486;-58
2022/06/09 12:45:21;;;;;;;4.97;4.47;;;28.00;99.90;;;;;;5031714;28;20504;-56
2022/06/09 12:48:07;;;;;;;8.20;5.13;;;28.20;99.90;;;;;;5035203;28;20652;-53
2022/06/09 12:50:51;;;;;;;6.27;5.67;;;27.90;99.90;;;;;;5031221;28;20439;-58
2022/06/09 12:53:37;;;;;;;5.47;4.97;;;28.00;99.90;;;;;;5033175;28;20802;-54
2022/06/09 12:56:19;;;;;;;5.60;5.20;;;28.10;99.90;;;;;;5029966;28;20762;-56
2022/06/09 12:58:48;;;;;;;5.17;4.30;;;27.90;99.90;;;;;;5029049;28;20481;-56
2022/06/09 13:01:19;;;;;;;5.80;4.97;;;28.00;99.90;;;;;;5031909;28;20481;-56
2022/06/09 13:03:50;;;;;;;4.07;3.77;;;28.00;99.90;;;;;;5034167;28;20440;-56
2022/06/09 13:06:30;;;;;;;4.30;3.90;;;28.00;99.90;;;;;;5029836;28;20441;-57
2022/06/09 13:09:14;;;;;;;6.90;4.57;;;28.00;99.90;;;;;;5033735;28;20688;-57
2022/06/09 13:14:33;;;;;;;4.70;4.30;;;27.40;99.90;;;;;;5031028;28;20804;-58
2022/06/09 13:17:21;;;;;;;11.60;4.73;;;27.40;99.90;;;;;;5019113;28;20519;-57
2022/06/09 13:19:56;;;;;;;4.03;3.73;;;27.30;99.90;;;;;;5018142;28;20464;-56
2022/06/09 13:22:26;;;;;;;4.07;3.77;;;27.40;99.90;;;;;;5024841;28;20530;-56
2022/06/09 13:24:54;;;;;;;12.17;3.70;;;27.50;99.90;;;;;;5016911;28;20442;-55
2022/06/09 13:27:26;;;;;;;5.30;4.80;;;27.70;99.90;;;;;;5022270;28;20820;-56
2022/06/09 13:29:54;;;;;;;4.60;4.20;;;27.80;99.90;;;;;;5022364;28;20472;-55
2022/06/09 13:32:39;;;;;;;3.57;3.30;;;28.00;99.90;;;;;;5020861;28;20456;-56
2022/06/09 13:35:40;;;;;;;5.10;4.70;;;28.10;99.90;;;;;;5029522;28;20442;-56
2022/06/09 13:38:19;;;;;;;13.90;4.77;;;28.10;99.90;;;;;;5010951;28;20459;-53